Portada
METAR-TAF:

METAR-TAF

Aeropuertos :

Rodez, Francia

Aeropuerto de Rodez-Aveyron

latitud: 44-24N, longitud: 002-29E, altitud: 581 m

Observación

El informe se hizo hace 43 minutos, a las 07:30 UTC
Viento 2 kt con dirección variable
Temperatura 8°C
Humedad 76%
Presión 1025 hPa
Visibilidad 10 km o más
Cielo cubierto a una altura de 2300 ft

METAR: LFCR 280730Z AUTO VRB02KT 9999 OVC023 08/04 Q1025 NOSIG

Hora: 10:13 (08:13 UTC)

Pronóstico

El informe se hizo hace 3 horas y 13 minutos, a las 05:00 UTC
Pronóstico válido del 28 a las 06 UTC al 29 a las 06 UTC
Viento 2 kt con dirección variable
Visibilidad 10 km o más
sin nubes por debajo de 1500 m y sin presencia de cumulonimbus.

TAF: LFCR 280500Z 2806/2906 VRB02KT CAVOK

Observaciones y pronósticos meteorológicos de más de 4000 aeropuertos (mensajes METAR y TAF).

Los puntos amarillos y rojos representan las estaciones disponibles.

Ponga el ratón en el punto deseado para ver el nombre de la estación.

Haga clic para ver las observaciones y los pronósticos meteorológicos.

Para cambiar el mapa : haga clic en los botones verdes con una cruz de color negro para hacer un zoom, en el botón verde con un guión para alejar o en las flechas verdes para mapas adyacentes.


METAR-TAF: